Buoy 33964

sailwx.info

Track history (hours):
 
Tides and Currents Weather Stations Pressure Air Temp Water Temp Dewpoint Dewpoint Depression Visibility Wind Speed Wind Dir Waves Ship Positions

Drifting buoy 33964

Last reported at 2018-Jul-18 01:00 UTC. Time now 2018-Jul-18 02:42 UTC.
Position S 35°53' E 058°46'.

Barometer 1016.3 mb
Water temperature 15.4 ° C

Date/timePositionNaut miles runAvg speedWind from/ knotsBaromVisibWave heightAir tempDewpointWater temp
2018-Jul-18 01:00S 35°53' E 058°46'0 0.5 1016.3 15.4
2018-Jul-18 00:00S 35°53' E 058°46'1 0.8 1016.1 15.4
2018-Jul-17 23:00S 35°53' E 058°46'0 0.0 1016.0 15.4
2018-Jul-17 22:00S 35°53' E 058°46'3 0.9 1016.0 15.5
2018-Jul-17 18:00S 35°56' E 058°43'0 0.5 1014.5 15.3
2018-Jul-17 17:00S 35°56' E 058°44'1 0.6 1014.1 15.3
2018-Jul-17 16:00S 35°56' E 058°44'1 1.0 1013.0 15.2
2018-Jul-17 15:00S 35°56' E 058°43'0 0.0 1012.5 15.2
2018-Jul-17 14:00S 35°56' E 058°43'2 2.3 1012.1 15.2
2018-Jul-17 13:00S 35°58' E 058°41'0 0.0 1012.1 15.2
2018-Jul-17 12:00S 35°58' E 058°41'1 0.1 1011.7 15.2
2018-Jul-17 06:00S 35°59' E 058°41'1 0.8 1011.0 15.2
2018-Jul-17 05:00S 35°59' E 058°40'1 1.3 1010.3 15.2
2018-Jul-17 04:00S 36°01' E 058°40'0 0.0 1009.4 15.2
2018-Jul-17 03:00S 36°01' E 058°40'1 0.6 1008.4 15.2
2018-Jul-17 02:00S 36°01' E 058°40'2 1.1 1007.4 15.2
2018-Jul-17 00:00S 36°02' E 058°37'1 1.3 1006.4 15.2
2018-Jul-16 23:00S 36°04' E 058°37'3 0.8 1006.6 15.2
2018-Jul-16 19:00S 36°06' E 058°34'0 0.5 1005.8 15.2
2018-Jul-16 18:00S 36°06' E 058°35'0 0.5 1005.5 15.2
2018-Jul-16 17:00S 36°06' E 058°34'1 0.8 1005.5 15.2
2018-Jul-16 16:00S 36°07' E 058°34'1 1.1 1005.7 15.2
2018-Jul-16 15:00S 36°07' E 058°32'1 0.4 1006.0 15.2
2018-Jul-16 13:00S 36°08' E 058°33'3 3.0 1007.0 15.2
2018-Jul-16 12:00S 36°11' E 058°33'0 0.0 1007.1 15.3
2018-Jul-16 11:00S 36°11' E 058°33'0 0.0 1007.1 15.3
2018-Jul-16 10:00S 36°11' E 058°33'0 0.0 1007.9 15.3
2018-Jul-16 06:00S 36°11' E 058°33'1 0.8 1008.7 15.3
2018-Jul-16 05:00S 36°11' E 058°32'0 0.5 1009.0 15.3
2018-Jul-16 04:00S 36°11' E 058°32'0 0.0 1009.6 15.3
2018-Jul-16 03:00S 36°11' E 058°32'0 0.5 1009.6 15.3
2018-Jul-16 02:00S 36°11' E 058°32'0 0.0 1010.7 15.3
2018-Jul-16 01:00S 36°11' E 058°32'0 0.0 1011.8 15.3
2018-Jul-16 00:00S 36°11' E 058°32'1 0.6 1013.6 15.3
2018-Jul-15 23:00S 36°12' E 058°32'1 0.6 1015.0 15.3
2018-Jul-15 22:00S 36°11' E 058°32'0 0.0 1016.0 15.3
2018-Jul-15 19:00S 36°11' E 058°32'0 0.0 1019.0 15.3
2018-Jul-15 18:00S 36°11' E 058°32'0 0.0 1020.4 15.3
2018-Jul-15 17:00S 36°11' E 058°32'0 0.0 1021.5 15.3
2018-Jul-15 16:00S 36°11' E 058°32'0 0.5 1022.1 15.3
2018-Jul-15 15:00S 36°11' E 058°33'0 0.0 1023.0 15.3
2018-Jul-15 14:00S 36°11' E 058°33'1 0.6 1023.4 15.3
2018-Jul-15 13:00S 36°12' E 058°33'0 0.5 1023.8 15.3
2018-Jul-15 12:00S 36°12' E 058°34'0 0.0 1024.3 15.3
2018-Jul-15 11:00S 36°12' E 058°34'1 1.3 1024.8 15.3
2018-Jul-15 10:00S 36°13' E 058°33'0 0.0 1025.5 15.3
2018-Jul-15 06:00S 36°13' E 058°33'1 0.6 1028.8 15.3
2018-Jul-15 05:00S 36°14' E 058°33'0 0.0 1029.2 15.3
2018-Jul-15 04:00S 36°14' E 058°33'0 0.0 1029.5 15.3
2018-Jul-15 03:00S 36°14' E 058°33'1 0.6 1029.5 15.3
2018-Jul-15 02:00S 36°14' E 058°33'0 0.5 1029.7 15.3
2018-Jul-15 01:00S 36°14' E 058°34'0 0.0 1030.1 15.3
2018-Jul-15 00:00S 36°14' E 058°34'1 0.6 1030.3 15.3
2018-Jul-14 23:00S 36°15' E 058°34'1 1.3 1030.9 15.2
2018-Jul-14 22:00S 36°16' E 058°34'0 0.0 1031.5 15.3
2018-Jul-14 19:00S 36°16' E 058°34'1 0.6 1032.6 15.3
2018-Jul-14 18:00S 36°17' E 058°34'1 0.6 1033.0 15.3
2018-Jul-14 17:00S 36°17' E 058°34'1 0.6 1033.7 15.3
2018-Jul-14 16:00S 36°18' E 058°34'1 0.4 1033.7 15.3
2018-Jul-14 14:00S 36°19' E 058°35'1 1.2 1033.7 15.3
2018-Jul-14 13:00S 36°20' E 058°35'0 0.0 1033.7 15.3
2018-Jul-14 12:00S 36°20' E 058°35'2 1.9 1034.1 15.3
2018-Jul-14 11:00S 36°22' E 058°34'2 2.4 1034.2 15.3
2018-Jul-14 10:00S 36°19' E 058°34'2 0.5 1034.1 15.3
2018-Jul-14 05:00S 36°22' E 058°34'0 0.5 1036.4 15.3
2018-Jul-14 04:00S 36°22' E 058°35'0 0.0 1036.6 15.3
2018-Jul-14 03:00S 36°22' E 058°35'1 0.8 1036.5 15.3
2018-Jul-14 02:00S 36°22' E 058°35'0 0.0 1036.3 15.3
2018-Jul-14 01:00S 36°22' E 058°35'0 0.0 1036.7 15.3
2018-Jul-14 00:00S 36°22' E 058°35'2 1.6 1037.0 15.3
2018-Jul-13 23:00S 36°23' E 058°37'0 0.0 1037.5 15.3
2018-Jul-13 22:00S 36°23' E 058°37'2 0.5 1037.8 15.3
2018-Jul-13 19:00S 36°24' E 058°36'0 0.0 1038.9 15.3
2018-Jul-13 18:00S 36°24' E 058°36'1 1.2 1039.2 15.3
2018-Jul-13 17:00S 36°25' E 058°36'1 0.8 1039.1 15.3
2018-Jul-13 16:00S 36°25' E 058°35'1 0.8 1038.9 15.3
2018-Jul-13 15:00S 36°25' E 058°35'0 0.0 1038.6 15.3
2018-Jul-13 14:00S 36°25' E 058°35'0 0.0 1038.5 15.3
2018-Jul-13 13:00S 36°25' E 058°35'1 0.6 1038.4 15.3
2018-Jul-13 12:00S 36°26' E 058°35'0 0.0 1038.3 15.3
2018-Jul-13 11:00S 36°26' E 058°35'1 0.3 1038.2 15.4
2018-Jul-13 06:00S 36°27' E 058°35'0 0.5 1039.9 15.3
2018-Jul-13 05:00S 36°27' E 058°35'2 1.6 1039.6 15.3
2018-Jul-13 04:00S 36°28' E 058°37'0 0.0 1039.4 15.3
2018-Jul-13 03:00S 36°28' E 058°37'1 0.8 1039.0 15.3
2018-Jul-13 02:00S 36°28' E 058°37'0 0.0 1038.3 15.3
2018-Jul-13 01:00S 36°28' E 058°37'1 1.2 1038.1 15.3
2018-Jul-13 00:00S 36°29' E 058°37'0 0.5 1038.1 15.3
2018-Jul-12 23:00S 36°29' E 058°38'0 0.0 1038.3 15.3
2018-Jul-12 22:00S 36°29' E 058°38'2 0.6 1038.3 15.3
2018-Jul-12 18:00S 36°32' E 058°38'1 1.3 1037.3 15.3
2018-Jul-12 17:00S 36°33' E 058°38'0 0.0 1037.1 15.3
2018-Jul-12 16:00S 36°33' E 058°38'1 0.8 1036.4 15.3
2018-Jul-12 15:00S 36°34' E 058°39'0 0.5 1035.9 15.3
2018-Jul-12 14:00S 36°34' E 058°38'1 1.4 1035.2 15.3
2018-Jul-12 13:00S 36°34' E 058°40'1 0.8 1034.4 15.3
2018-Jul-12 12:00S 36°34' E 058°40'6 6.4 1033.8 15.3
2018-Jul-12 11:00S 36°40' E 058°44'0 0.0 1033.1 15.3
2018-Jul-12 06:00S 36°40' E 058°44'1 0.6 1031.0 15.4
2018-Jul-12 05:00S 36°39' E 058°44'2 1.9 1029.7 15.4
2018-Jul-12 04:00S 36°41' E 058°44'1 1.3 1028.7 15.4
2018-Jul-12 03:00S 36°42' E 058°45'0 0.5 1027.7 15.4
2018-Jul-12 02:00S 36°42' E 058°46'2 2.0 1026.7 15.4
2018-Jul-12 01:00S 36°44' E 058°47'0 0.0 1025.7 15.4
2018-Jul-12 00:00S 36°44' E 058°47'0 0.5 1024.5 15.4
2018-Jul-11 23:00S 36°44' E 058°46'0 0.0 1023.8 15.4
2018-Jul-11 22:00S 36°44' E 058°46'2 0.6 1024.2 15.4
2018-Jul-11 19:00S 36°46' E 058°47'0 0.5 1025.2 15.5
2018-Jul-11 18:00S 36°46' E 058°47'0 0.0 1025.5 15.6
2018-Jul-11 17:00S 36°46' E 058°47'1 0.4 1025.8 15.6
2018-Jul-11 15:00S 36°46' E 058°47'0 0.5 1025.9 15.6
2018-Jul-11 14:00S 36°46' E 058°47'0 0.0 1026.0 15.6
2018-Jul-11 13:00S 36°46' E 058°47'2 2.4 1025.9 15.6
2018-Jul-11 12:00S 36°49' E 058°48'2 2.0 1026.2 15.6
2018-Jul-11 11:00S 36°47' E 058°47'2 0.5 1026.1 15.6
2018-Jul-11 06:00S 36°49' E 058°49'1 0.8 1029.0 15.6
2018-Jul-11 05:00S 36°49' E 058°49'1 0.8 1029.2 15.6
2018-Jul-11 04:00S 36°50' E 058°49'1 0.8 1029.0 15.7
2018-Jul-11 03:00S 36°50' E 058°49'0 0.0 1029.1 15.6
2018-Jul-11 02:00S 36°50' E 058°49'2 2.0 1028.9 15.6
2018-Jul-11 01:00S 36°52' E 058°50'0 0.0 1029.1 15.6
2018-Jul-10 23:00S 36°52' E 058°50'0 0.0 1029.6 15.6
2018-Jul-10 22:00S 36°52' E 058°50'0 0.0 1029.8 15.6
2018-Jul-10 19:00S 36°52' E 058°50'1 0.6 1029.6 15.6
2018-Jul-10 18:00S 36°53' E 058°50'1 1.1 1029.7 15.6
2018-Jul-10 17:00S 36°53' E 058°52'1 1.0 1029.6 15.6
2018-Jul-10 16:00S 36°53' E 058°53'1 0.6 1029.5 15.6
2018-Jul-10 15:00S 36°54' E 058°53'0 0.0 1029.3 15.6
2018-Jul-10 14:00S 36°54' E 058°53'0 0.5 1029.0 15.6
2018-Jul-10 13:00S 36°54' E 058°52'4 3.7 1028.6 15.5
2018-Jul-10 12:00S 36°56' E 058°56'3 2.6 1028.3 15.5
2018-Jul-10 11:00S 36°55' E 058°53'3 0.7 1027.9 15.5
2018-Jul-10 06:00S 36°57' E 058°56'1 0.6 1027.7 15.4
2018-Jul-10 05:00S 36°58' E 058°56'0 0.5 1027.0 15.4
2018-Jul-10 04:00S 36°58' E 058°56'2 1.0 1026.3 15.3
2018-Jul-10 02:00S 36°59' E 058°57'1 0.6 1024.2 15.3
2018-Jul-10 01:00S 37°00' E 058°57'0 0.0 1023.7 15.3
2018-Jul-09 23:00S 37°00' E 058°57'2 2.4 1023.2 15.4
2018-Jul-09 22:00S 37°02' E 058°58'1 0.5 1022.9 15.4
2018-Jul-09 19:00S 37°02' E 058°59'0 0.0 1022.0 15.4
2018-Jul-09 18:00S 37°02' E 058°59'1 1.3 1021.8 15.4
2018-Jul-09 17:00S 37°04' E 058°59'1 0.6 1021.7 15.4
2018-Jul-09 16:00S 37°04' E 058°59'0 0.0 1021.8 15.4
2018-Jul-09 14:00S 37°04' E 058°59'2 1.0 1021.5 15.4
2018-Jul-09 12:00S 37°06' E 059°00'3 2.6 1022.3 15.4
2018-Jul-09 11:00S 37°08' E 058°59'1 0.1 1022.7 15.5
2018-Jul-09 05:00S 37°09' E 058°59'1 0.8 1026.4 15.6
2018-Jul-09 04:00S 37°10' E 058°58'0 0.0 1026.3 15.6
2018-Jul-09 03:00S 37°10' E 058°58'1 0.6 1026.3 15.6
2018-Jul-09 02:00S 37°10' E 058°58'1 0.8 1025.8 15.6
2018-Jul-09 01:00S 37°10' E 058°59'1 0.8 1025.9 15.6
2018-Jul-09 00:00S 37°10' E 058°58'1 0.6 1025.6 15.6
2018-Jul-08 23:00S 37°11' E 058°58'0 0.0 1025.9 15.6
2018-Jul-08 22:00S 37°11' E 058°58'2 0.4 1025.7 15.6
2018-Jul-08 18:00S 37°12' E 058°59'1 0.8 1024.9 15.6
2018-Jul-08 17:00S 37°13' E 059°00'1 0.6 1024.7 15.7
2018-Jul-08 16:00S 37°13' E 059°00'1 0.6 1024.2 15.6
2018-Jul-08 15:00S 37°14' E 059°00'2 0.9 1023.4 15.6
2018-Jul-08 13:00S 37°16' E 059°01'0 0.0 1021.9 15.6
2018-Jul-08 12:00S 37°16' E 059°01'5 0.9 1021.7 15.7
2018-Jul-08 06:00S 37°19' E 058°56'0 0.0 1021.6 15.7
2018-Jul-08 05:00S 37°19' E 058°56'1 0.6 1021.7 15.7
2018-Jul-08 04:00S 37°20' E 058°56'0 0.5 1021.9 15.7
2018-Jul-08 03:00S 37°20' E 058°55'1 1.1 1021.8 15.7
2018-Jul-08 02:00S 37°20' E 058°54'1 1.0 1021.8 15.7
2018-Jul-08 01:00S 37°20' E 058°53'   1021.7 15.6
Track history (hours):
 
Tides and Currents Weather Stations Pressure Air Temp Water Temp Dewpoint Dewpoint Depression Visibility Wind Speed Wind Dir Waves Ship Positions

Drifting buoy 33964

Last reported at 2018-Jul-18 01:00 UTC. Time now 2018-Jul-18 02:42 UTC.
Position S 35°53' E 058°46'.

Barometer 1016.3 mb
Water temperature 15.4 ° C

Date/timePositionNaut miles runAvg speedWind from/ knotsBaromVisibWave heightAir tempDewpointWater temp
2018-Jul-18 01:00S 35°53' E 058°46'0 0.5 1016.3 15.4
2018-Jul-18 00:00S 35°53' E 058°46'1 0.8 1016.1 15.4
2018-Jul-17 23:00S 35°53' E 058°46'0 0.0 1016.0 15.4
2018-Jul-17 22:00S 35°53' E 058°46'3 0.9 1016.0 15.5
2018-Jul-17 18:00S 35°56' E 058°43'0 0.5 1014.5 15.3
2018-Jul-17 17:00S 35°56' E 058°44'1 0.6 1014.1 15.3
2018-Jul-17 16:00S 35°56' E 058°44'1 1.0 1013.0 15.2
2018-Jul-17 15:00S 35°56' E 058°43'0 0.0 1012.5 15.2
2018-Jul-17 14:00S 35°56' E 058°43'2 2.3 1012.1 15.2
2018-Jul-17 13:00S 35°58' E 058°41'0 0.0 1012.1 15.2
2018-Jul-17 12:00S 35°58' E 058°41'1 0.1 1011.7 15.2
2018-Jul-17 06:00S 35°59' E 058°41'1 0.8 1011.0 15.2
2018-Jul-17 05:00S 35°59' E 058°40'1 1.3 1010.3 15.2
2018-Jul-17 04:00S 36°01' E 058°40'0 0.0 1009.4 15.2
2018-Jul-17 03:00S 36°01' E 058°40'1 0.6 1008.4 15.2
2018-Jul-17 02:00S 36°01' E 058°40'2 1.1 1007.4 15.2
2018-Jul-17 00:00S 36°02' E 058°37'1 1.3 1006.4 15.2
2018-Jul-16 23:00S 36°04' E 058°37'3 0.8 1006.6 15.2
2018-Jul-16 19:00S 36°06' E 058°34'0 0.5 1005.8 15.2
2018-Jul-16 18:00S 36°06' E 058°35'0 0.5 1005.5 15.2
2018-Jul-16 17:00S 36°06' E 058°34'1 0.8 1005.5 15.2
2018-Jul-16 16:00S 36°07' E 058°34'1 1.1 1005.7 15.2
2018-Jul-16 15:00S 36°07' E 058°32'1 0.4 1006.0 15.2
2018-Jul-16 13:00S 36°08' E 058°33'3 3.0 1007.0 15.2
2018-Jul-16 12:00S 36°11' E 058°33'0 0.0 1007.1 15.3
2018-Jul-16 11:00S 36°11' E 058°33'0 0.0 1007.1 15.3
2018-Jul-16 10:00S 36°11' E 058°33'0 0.0 1007.9 15.3
2018-Jul-16 06:00S 36°11' E 058°33'1 0.8 1008.7 15.3
2018-Jul-16 05:00S 36°11' E 058°32'0 0.5 1009.0 15.3
2018-Jul-16 04:00S 36°11' E 058°32'0 0.0 1009.6 15.3
2018-Jul-16 03:00S 36°11' E 058°32'0 0.5 1009.6 15.3
2018-Jul-16 02:00S 36°11' E 058°32'0 0.0 1010.7 15.3
2018-Jul-16 01:00S 36°11' E 058°32'0 0.0 1011.8 15.3
2018-Jul-16 00:00S 36°11' E 058°32'1 0.6 1013.6 15.3
2018-Jul-15 23:00S 36°12' E 058°32'1 0.6 1015.0 15.3
2018-Jul-15 22:00S 36°11' E 058°32'0 0.0 1016.0 15.3
2018-Jul-15 19:00S 36°11' E 058°32'0 0.0 1019.0 15.3
2018-Jul-15 18:00S 36°11' E 058°32'0 0.0 1020.4 15.3
2018-Jul-15 17:00S 36°11' E 058°32'0 0.0 1021.5 15.3
2018-Jul-15 16:00S 36°11' E 058°32'0 0.5 1022.1 15.3
2018-Jul-15 15:00S 36°11' E 058°33'0 0.0 1023.0 15.3
2018-Jul-15 14:00S 36°11' E 058°33'1 0.6 1023.4 15.3
2018-Jul-15 13:00S 36°12' E 058°33'0 0.5 1023.8 15.3
2018-Jul-15 12:00S 36°12' E 058°34'0 0.0 1024.3 15.3
2018-Jul-15 11:00S 36°12' E 058°34'1 1.3 1024.8 15.3
2018-Jul-15 10:00S 36°13' E 058°33'0 0.0 1025.5 15.3
2018-Jul-15 06:00S 36°13' E 058°33'1 0.6 1028.8 15.3
2018-Jul-15 05:00S 36°14' E 058°33'0 0.0 1029.2 15.3
2018-Jul-15 04:00S 36°14' E 058°33'0 0.0 1029.5 15.3
2018-Jul-15 03:00S 36°14' E 058°33'1 0.6 1029.5 15.3
2018-Jul-15 02:00S 36°14' E 058°33'0 0.5 1029.7 15.3
2018-Jul-15 01:00S 36°14' E 058°34'0 0.0 1030.1 15.3
2018-Jul-15 00:00S 36°14' E 058°34'1 0.6 1030.3 15.3
2018-Jul-14 23:00S 36°15' E 058°34'1 1.3 1030.9 15.2
2018-Jul-14 22:00S 36°16' E 058°34'0 0.0 1031.5 15.3
2018-Jul-14 19:00S 36°16' E 058°34'1 0.6 1032.6 15.3
2018-Jul-14 18:00S 36°17' E 058°34'1 0.6 1033.0 15.3
2018-Jul-14 17:00S 36°17' E 058°34'1 0.6 1033.7 15.3
2018-Jul-14 16:00S 36°18' E 058°34'1 0.4 1033.7 15.3
2018-Jul-14 14:00S 36°19' E 058°35'1 1.2 1033.7 15.3
2018-Jul-14 13:00S 36°20' E 058°35'0 0.0 1033.7 15.3
2018-Jul-14 12:00S 36°20' E 058°35'2 1.9 1034.1 15.3
2018-Jul-14 11:00S 36°22' E 058°34'2 2.4 1034.2 15.3
2018-Jul-14 10:00S 36°19' E 058°34'2 0.5 1034.1 15.3
2018-Jul-14 05:00S 36°22' E 058°34'0 0.5 1036.4 15.3
2018-Jul-14 04:00S 36°22' E 058°35'0 0.0 1036.6 15.3
2018-Jul-14 03:00S 36°22' E 058°35'1 0.8 1036.5 15.3
2018-Jul-14 02:00S 36°22' E 058°35'0 0.0 1036.3 15.3
2018-Jul-14 01:00S 36°22' E 058°35'0 0.0 1036.7 15.3
2018-Jul-14 00:00S 36°22' E 058°35'2 1.6 1037.0 15.3
2018-Jul-13 23:00S 36°23' E 058°37'0 0.0 1037.5 15.3
2018-Jul-13 22:00S 36°23' E 058°37'2 0.5 1037.8 15.3
2018-Jul-13 19:00S 36°24' E 058°36'0 0.0 1038.9 15.3
2018-Jul-13 18:00S 36°24' E 058°36'1 1.2 1039.2 15.3
2018-Jul-13 17:00S 36°25' E 058°36'1 0.8 1039.1 15.3
2018-Jul-13 16:00S 36°25' E 058°35'1 0.8 1038.9 15.3
2018-Jul-13 15:00S 36°25' E 058°35'0 0.0 1038.6 15.3
2018-Jul-13 14:00S 36°25' E 058°35'0 0.0 1038.5 15.3
2018-Jul-13 13:00S 36°25' E 058°35'1 0.6 1038.4 15.3
2018-Jul-13 12:00S 36°26' E 058°35'0 0.0 1038.3 15.3
2018-Jul-13 11:00S 36°26' E 058°35'1 0.3 1038.2 15.4
2018-Jul-13 06:00S 36°27' E 058°35'0 0.5 1039.9 15.3
2018-Jul-13 05:00S 36°27' E 058°35'2 1.6 1039.6 15.3
2018-Jul-13 04:00S 36°28' E 058°37'0 0.0 1039.4 15.3
2018-Jul-13 03:00S 36°28' E 058°37'1 0.8 1039.0 15.3
2018-Jul-13 02:00S 36°28' E 058°37'0 0.0 1038.3 15.3
2018-Jul-13 01:00S 36°28' E 058°37'1 1.2 1038.1 15.3
2018-Jul-13 00:00S 36°29' E 058°37'0 0.5 1038.1 15.3
2018-Jul-12 23:00S 36°29' E 058°38'0 0.0 1038.3 15.3
2018-Jul-12 22:00S 36°29' E 058°38'2 0.6 1038.3 15.3
2018-Jul-12 18:00S 36°32' E 058°38'1 1.3 1037.3 15.3
2018-Jul-12 17:00S 36°33' E 058°38'0 0.0 1037.1 15.3
2018-Jul-12 16:00S 36°33' E 058°38'1 0.8 1036.4 15.3
2018-Jul-12 15:00S 36°34' E 058°39'0 0.5 1035.9 15.3
2018-Jul-12 14:00S 36°34' E 058°38'1 1.4 1035.2 15.3
2018-Jul-12 13:00S 36°34' E 058°40'1 0.8 1034.4 15.3
2018-Jul-12 12:00S 36°34' E 058°40'6 6.4 1033.8 15.3
2018-Jul-12 11:00S 36°40' E 058°44'0 0.0 1033.1 15.3
2018-Jul-12 06:00S 36°40' E 058°44'1 0.6 1031.0 15.4
2018-Jul-12 05:00S 36°39' E 058°44'2 1.9 1029.7 15.4
2018-Jul-12 04:00S 36°41' E 058°44'1 1.3 1028.7 15.4
2018-Jul-12 03:00S 36°42' E 058°45'0 0.5 1027.7 15.4
2018-Jul-12 02:00S 36°42' E 058°46'2 2.0 1026.7 15.4
2018-Jul-12 01:00S 36°44' E 058°47'0 0.0 1025.7 15.4
2018-Jul-12 00:00S 36°44' E 058°47'0 0.5 1024.5 15.4
2018-Jul-11 23:00S 36°44' E 058°46'0 0.0 1023.8 15.4
2018-Jul-11 22:00S 36°44' E 058°46'2 0.6 1024.2 15.4
2018-Jul-11 19:00S 36°46' E 058°47'0 0.5 1025.2 15.5
2018-Jul-11 18:00S 36°46' E 058°47'0 0.0 1025.5 15.6
2018-Jul-11 17:00S 36°46' E 058°47'1 0.4 1025.8 15.6
2018-Jul-11 15:00S 36°46' E 058°47'0 0.5 1025.9 15.6
2018-Jul-11 14:00S 36°46' E 058°47'0 0.0 1026.0 15.6
2018-Jul-11 13:00S 36°46' E 058°47'2 2.4 1025.9 15.6
2018-Jul-11 12:00S 36°49' E 058°48'2 2.0 1026.2 15.6
2018-Jul-11 11:00S 36°47' E 058°47'2 0.5 1026.1 15.6
2018-Jul-11 06:00S 36°49' E 058°49'1 0.8 1029.0 15.6
2018-Jul-11 05:00S 36°49' E 058°49'1 0.8 1029.2 15.6
2018-Jul-11 04:00S 36°50' E 058°49'1 0.8 1029.0 15.7
2018-Jul-11 03:00S 36°50' E 058°49'0 0.0 1029.1 15.6
2018-Jul-11 02:00S 36°50' E 058°49'2 2.0 1028.9 15.6
2018-Jul-11 01:00S 36°52' E 058°50'0 0.0 1029.1 15.6
2018-Jul-10 23:00S 36°52' E 058°50'0 0.0 1029.6 15.6
2018-Jul-10 22:00S 36°52' E 058°50'0 0.0 1029.8 15.6
2018-Jul-10 19:00S 36°52' E 058°50'1 0.6 1029.6 15.6
2018-Jul-10 18:00S 36°53' E 058°50'1 1.1 1029.7 15.6
2018-Jul-10 17:00S 36°53' E 058°52'1 1.0 1029.6 15.6
2018-Jul-10 16:00S 36°53' E 058°53'1 0.6 1029.5 15.6
2018-Jul-10 15:00S 36°54' E 058°53'0 0.0 1029.3 15.6
2018-Jul-10 14:00S 36°54' E 058°53'0 0.5 1029.0 15.6
2018-Jul-10 13:00S 36°54' E 058°52'4 3.7 1028.6 15.5
2018-Jul-10 12:00S 36°56' E 058°56'3 2.6 1028.3 15.5
2018-Jul-10 11:00S 36°55' E 058°53'3 0.7 1027.9 15.5
2018-Jul-10 06:00S 36°57' E 058°56'1 0.6 1027.7 15.4
2018-Jul-10 05:00S 36°58' E 058°56'0 0.5 1027.0 15.4
2018-Jul-10 04:00S 36°58' E 058°56'2 1.0 1026.3 15.3
2018-Jul-10 02:00S 36°59' E 058°57'1 0.6 1024.2 15.3
2018-Jul-10 01:00S 37°00' E 058°57'0 0.0 1023.7 15.3
2018-Jul-09 23:00S 37°00' E 058°57'2 2.4 1023.2 15.4
2018-Jul-09 22:00S 37°02' E 058°58'1 0.5 1022.9 15.4
2018-Jul-09 19:00S 37°02' E 058°59'0 0.0 1022.0 15.4
2018-Jul-09 18:00S 37°02' E 058°59'1 1.3 1021.8 15.4
2018-Jul-09 17:00S 37°04' E 058°59'1 0.6 1021.7 15.4
2018-Jul-09 16:00S 37°04' E 058°59'0 0.0 1021.8 15.4
2018-Jul-09 14:00S 37°04' E 058°59'2 1.0 1021.5 15.4
2018-Jul-09 12:00S 37°06' E 059°00'3 2.6 1022.3 15.4
2018-Jul-09 11:00S 37°08' E 058°59'1 0.1 1022.7 15.5
2018-Jul-09 05:00S 37°09' E 058°59'1 0.8 1026.4 15.6
2018-Jul-09 04:00S 37°10' E 058°58'0 0.0 1026.3 15.6
2018-Jul-09 03:00S 37°10' E 058°58'1 0.6 1026.3 15.6
2018-Jul-09 02:00S 37°10' E 058°58'1 0.8 1025.8 15.6
2018-Jul-09 01:00S 37°10' E 058°59'1 0.8 1025.9 15.6
2018-Jul-09 00:00S 37°10' E 058°58'1 0.6 1025.6 15.6
2018-Jul-08 23:00S 37°11' E 058°58'0 0.0 1025.9 15.6
2018-Jul-08 22:00S 37°11' E 058°58'2 0.4 1025.7 15.6
2018-Jul-08 18:00S 37°12' E 058°59'1 0.8 1024.9 15.6
2018-Jul-08 17:00S 37°13' E 059°00'1 0.6 1024.7 15.7
2018-Jul-08 16:00S 37°13' E 059°00'1 0.6 1024.2 15.6
2018-Jul-08 15:00S 37°14' E 059°00'2 0.9 1023.4 15.6
2018-Jul-08 13:00S 37°16' E 059°01'0 0.0 1021.9 15.6
2018-Jul-08 12:00S 37°16' E 059°01'5 0.9 1021.7 15.7
2018-Jul-08 06:00S 37°19' E 058°56'0 0.0 1021.6 15.7
2018-Jul-08 05:00S 37°19' E 058°56'1 0.6 1021.7 15.7
2018-Jul-08 04:00S 37°20' E 058°56'0 0.5 1021.9 15.7
2018-Jul-08 03:00S 37°20' E 058°55'1 1.1 1021.8 15.7
2018-Jul-08 02:00S 37°20' E 058°54'1 1.0 1021.8 15.7
2018-Jul-08 01:00S 37°20' E 058°53'   1021.7 15.6

Dump ship's entire track history